Time;durP1;ratioP1;P1;durP2;ratioP2;P2;SDS_P1;SDS_P2;PMS_P1;PMS_P2;Temp;Humidity;BMP_temperature;BMP_pressure;BME280_temperature;BME280_humidity;BME280_pressure;Samples;Min_cycle;Max_cycle;Signal;HPM_P1;HPM_P2
2022/07/08 00:06:13;;;;;;;0.20;0.00;;;22.70;99.90;;;;;;21340433;27;20753;-67
2022/07/08 00:16:18;;;;;;;0.20;0.00;;;22.70;99.90;;;;;;21320838;27;20226;-70
2022/07/08 00:26:22;;;;;;;0.20;0.00;;;22.70;99.90;;;;;;21338369;27;20225;-69
2022/07/08 00:36:28;;;;;;;0.20;0.00;;;22.80;99.90;;;;;;21290445;27;20215;-70
2022/07/08 00:46:32;;;;;;;0.20;0.10;;;22.80;99.90;;;;;;21252177;28;20195;-69
2022/07/08 00:56:37;;;;;;;0.20;0.00;;;22.80;99.90;;;;;;21250650;28;20223;-69
2022/07/08 01:06:41;;;;;;;0.30;0.20;;;22.40;99.90;;;;;;21251105;28;20191;-69
2022/07/08 01:16:46;;;;;;;0.20;0.00;;;22.50;99.90;;;;;;21232534;28;20223;-67
2022/07/08 01:26:52;;;;;;;0.20;0.10;;;22.50;99.90;;;;;;21233923;28;20514;-68
2022/07/08 01:36:56;;;;;;;0.20;0.00;;;22.20;99.90;;;;;;21317352;27;20218;-70
2022/07/08 01:47:01;;;;;;;0.20;0.00;;;22.10;99.90;;;;;;21334260;27;20195;-69
2022/07/08 01:57:18;;;;;;;0.20;0.00;;;22.20;99.90;;;;;;21350897;27;20210;-68
2022/07/08 02:07:24;;;;;;;0.20;0.00;;;22.40;99.90;;;;;;21350313;27;20198;-69
2022/07/08 02:17:28;;;;;;;0.20;0.00;;;22.20;99.90;;;;;;21349411;27;20268;-69
2022/07/08 02:27:33;;;;;;;0.20;0.00;;;22.20;99.90;;;;;;21348924;27;20195;-68
2022/07/08 02:37:37;;;;;;;0.20;0.00;;;22.00;99.90;;;;;;21291111;27;20215;-69
2022/07/08 02:47:42;;;;;;;0.20;0.00;;;22.10;99.90;;;;;;21261160;28;20195;-69
2022/07/08 02:57:46;;;;;;;0.20;0.00;;;21.70;99.90;;;;;;21242927;28;20223;-68
2022/07/08 03:07:51;;;;;;;0.20;0.00;;;21.80;99.90;;;;;;21259986;28;20196;-68
2022/07/08 03:17:55;;;;;;;0.20;0.00;;;21.50;99.90;;;;;;21241867;28;20231;-68
2022/07/08 03:28:01;;;;;;;0.20;0.00;;;21.50;99.90;;;;;;21259098;28;20195;-69
2022/07/08 03:38:04;;;;;;;0.20;0.10;;;21.30;99.90;;;;;;21317748;27;20248;-69
2022/07/08 03:48:10;;;;;;;0.20;0.00;;;21.30;99.90;;;;;;21323969;27;20279;-68
2022/07/08 03:58:13;;;;;;;0.20;0.00;;;21.20;99.90;;;;;;21322379;27;20239;-69
2022/07/08 04:08:19;;;;;;;0.20;0.00;;;21.20;99.90;;;;;;21338278;27;20190;-69
2022/07/08 04:18:24;;;;;;;0.20;0.10;;;21.20;99.90;;;;;;21338629;27;20291;-69
2022/07/08 04:28:31;;;;;;;0.20;0.10;;;21.20;99.90;;;;;;21256523;27;20191;-69
2022/07/08 04:38:35;;;;;;;0.20;0.10;;;21.20;99.90;;;;;;21250808;28;20224;-70
2022/07/08 04:48:41;;;;;;;0.20;0.10;;;20.80;99.90;;;;;;21250259;28;20191;-69
2022/07/08 04:58:44;;;;;;;0.20;0.00;;;21.00;99.90;;;;;;21250008;28;20219;-69
2022/07/08 05:08:50;;;;;;;0.20;0.00;;;21.20;99.90;;;;;;21249385;28;20187;-68
2022/07/08 05:18:54;;;;;;;0.20;0.10;;;21.70;99.90;;;;;;21231521;28;20252;-69
2022/07/08 05:28:59;;;;;;;0.20;0.00;;;21.90;99.90;;;;;;21230244;28;20191;-69
2022/07/08 05:39:03;;;;;;;0.20;0.00;;;22.10;99.90;;;;;;21248263;28;20223;-70
2022/07/08 05:49:08;;;;;;;0.20;0.10;;;22.50;99.90;;;;;;21247394;28;20206;-69
2022/07/08 05:59:12;;;;;;;0.20;0.00;;;23.20;99.90;;;;;;21227634;28;20223;-70
2022/07/08 06:09:17;;;;;;;0.20;0.00;;;23.60;99.90;;;;;;21246448;28;20233;-69
2022/07/08 06:19:22;;;;;;;0.20;0.00;;;24.30;99.90;;;;;;21256627;28;20223;-69
2022/07/08 06:29:28;;;;;;;0.20;0.00;;;24.50;99.90;;;;;;21260289;28;20199;-67
2022/07/08 06:39:31;;;;;;;0.20;0.00;;;24.80;99.90;;;;;;21259813;28;20230;-70
2022/07/08 06:49:37;;;;;;;0.20;0.00;;;24.70;99.90;;;;;;21239488;28;20213;-69
2022/07/08 06:59:41;;;;;;;0.20;0.00;;;25.00;99.90;;;;;;21255123;28;20219;-70
2022/07/08 07:10:07;;;;;;;0.20;0.00;;;25.60;99.90;;;;;;21235006;28;20183;-69
2022/07/08 07:20:12;;;;;;;0.20;0.10;;;25.90;99.90;;;;;;21254493;28;20741;-70
2022/07/08 07:30:17;;;;;;;0.20;0.00;;;25.50;99.90;;;;;;21235901;28;20222;-69
2022/07/08 07:40:21;;;;;;;0.20;0.00;;;25.70;99.90;;;;;;21253112;28;20215;-67
2022/07/08 07:50:27;;;;;;;0.20;0.00;;;25.50;99.90;;;;;;21275347;27;20194;-68
2022/07/08 08:00:31;;;;;;;0.20;0.00;;;25.40;99.90;;;;;;21318368;27;20239;-70
2022/07/08 08:10:36;;;;;;;0.20;0.00;;;25.50;99.90;;;;;;21317159;27;20190;-69
2022/07/08 08:20:40;;;;;;;0.20;0.10;;;25.60;99.90;;;;;;21314639;27;20234;-70
2022/07/08 08:30:45;;;;;;;0.20;0.00;;;25.70;99.90;;;;;;21317568;27;20182;-70
2022/07/08 08:40:57;;;;;;;0.20;0.08;;;25.90;99.90;;;;;;21315797;27;20226;-69
2022/07/08 08:51:05;;;;;;;0.20;0.00;;;26.10;99.90;;;;;;21336081;27;20182;-69
2022/07/08 09:01:10;;;;;;;0.20;0.00;;;26.40;99.90;;;;;;21402785;27;20225;-69
2022/07/08 09:11:17;;;;;;;0.20;0.00;;;26.10;99.90;;;;;;21402996;27;20221;-70
2022/07/08 09:21:29;;;;;;;0.20;0.10;;;26.00;99.90;;;;;;21420804;27;20230;-70
2022/07/08 09:31:38;;;;;;;0.20;0.00;;;26.20;99.90;;;;;;21418424;27;20186;-68
2022/07/08 09:41:47;;;;;;;0.20;0.00;;;26.40;99.90;;;;;;21400270;27;20217;-69
2022/07/08 09:51:53;;;;;;;0.20;0.00;;;26.90;99.90;;;;;;21317012;27;20187;-70
2022/07/08 10:01:58;;;;;;;0.20;0.00;;;27.50;99.90;;;;;;21252323;28;20219;-67
2022/07/08 10:12:06;;;;;;;0.20;0.00;;;27.70;99.90;;;;;;21248712;28;20247;-69
2022/07/08 10:22:11;;;;;;;0.20;0.00;;;27.90;99.90;;;;;;21249958;28;20303;-68
2022/07/08 10:32:30;;;;;;;0.20;0.10;;;28.10;99.90;;;;;;21249742;28;20225;-69
2022/07/08 10:42:34;;;;;;;0.20;0.00;;;28.40;99.90;;;;;;21248097;28;20223;-69
2022/07/08 10:52:43;;;;;;;0.20;0.00;;;28.70;99.90;;;;;;21248955;28;20199;-69
2022/07/08 11:02:49;;;;;;;0.20;0.00;;;29.00;99.90;;;;;;21246918;28;20223;-69
2022/07/08 11:12:56;;;;;;;0.20;0.08;;;29.70;99.90;;;;;;21227855;28;20203;-68
2022/07/08 11:23:05;;;;;;;0.20;0.00;;;30.00;99.90;;;;;;21226567;28;20234;-68
2022/07/08 11:33:10;;;;;;;0.20;0.00;;;30.20;99.90;;;;;;21244701;28;20263;-69
2022/07/08 11:43:15;;;;;;;0.20;0.00;;;30.60;99.90;;;;;;21243289;28;20230;-68
2022/07/08 11:53:25;;;;;;;0.20;0.00;;;31.50;99.90;;;;;;21223158;28;20212;-70
2022/07/08 12:03:29;;;;;;;0.20;0.00;;;31.60;99.90;;;;;;21223176;28;20229;-68
2022/07/08 12:13:43;;;;;;;0.20;0.00;;;32.20;99.90;;;;;;21239048;28;20195;-70
2022/07/08 12:23:55;;;;;;;0.20;0.00;;;31.40;99.90;;;;;;21238369;28;20243;-68
2022/07/08 12:34:02;;;;;;;0.20;0.00;;;32.70;99.90;;;;;;21242637;28;20191;-69
2022/07/08 12:44:29;;;;;;;0.20;0.00;;;32.80;99.90;;;;;;21239404;28;20215;-69
2022/07/08 12:54:35;;;;;;;0.20;0.00;;;33.50;99.90;;;;;;21219879;28;20199;-68
2022/07/08 13:04:40;;;;;;;0.20;0.00;;;33.90;99.90;;;;;;21239663;28;20564;-67
2022/07/08 13:14:45;;;;;;;0.20;0.00;;;32.70;99.90;;;;;;21239091;28;20191;-68
2022/07/08 13:24:49;;;;;;;0.20;0.00;;;33.90;99.90;;;;;;21246551;28;20268;-68
2022/07/08 13:34:54;;;;;;;0.20;0.00;;;34.10;99.90;;;;;;21266689;28;20202;-67
2022/07/08 13:45:13;;;;;;;0.20;0.00;;;33.80;99.90;;;;;;21248018;28;20222;-68
2022/07/08 13:55:19;;;;;;;0.20;0.00;;;34.50;99.90;;;;;;21264896;28;20207;-68
2022/07/08 14:05:23;;;;;;;0.20;0.00;;;34.20;99.90;;;;;;21263610;28;20255;-70
2022/07/08 14:15:28;;;;;;;0.20;0.00;;;33.60;99.90;;;;;;21262630;28;20216;-69
2022/07/08 14:25:32;;;;;;;0.20;0.00;;;33.00;99.90;;;;;;21274790;27;21023;-71
2022/07/08 14:35:38;;;;;;;0.20;0.00;;;33.70;99.90;;;;;;21325307;27;20213;-66
2022/07/08 14:45:42;;;;;;;0.20;0.00;;;33.60;99.90;;;;;;21264057;27;20219;-68
2022/07/08 14:55:49;;;;;;;0.20;0.00;;;34.70;99.90;;;;;;21245691;28;20259;-69
2022/07/08 15:05:53;;;;;;;0.20;0.00;;;35.30;99.90;;;;;;21226705;28;20219;-69
2022/07/08 15:15:59;;;;;;;0.20;0.00;;;34.50;99.90;;;;;;21223809;28;20188;-69
2022/07/08 15:26:03;;;;;;;0.20;0.00;;;34.80;99.90;;;;;;21240561;28;20231;-67
2022/07/08 15:36:09;;;;;;;0.20;0.00;;;34.70;99.90;;;;;;21220894;28;20187;-68
2022/07/08 15:46:13;;;;;;;0.20;0.00;;;34.40;99.90;;;;;;21222015;28;20283;-67
2022/07/08 15:56:20;;;;;;;0.20;0.00;;;34.10;99.90;;;;;;21241342;28;20187;-69
2022/07/08 16:06:24;;;;;;;0.20;0.00;;;33.90;99.90;;;;;;21240230;28;20248;-69
2022/07/08 16:16:30;;;;;;;0.20;0.00;;;33.50;99.90;;;;;;21238701;28;20219;-68
2022/07/08 16:26:33;;;;;;;0.20;0.00;;;31.80;99.90;;;;;;21203944;28;20226;-68
2022/07/08 16:36:39;;;;;;;0.20;0.00;;;31.50;99.90;;;;;;21198773;28;20192;-68
2022/07/08 16:46:43;;;;;;;0.20;0.00;;;31.00;99.90;;;;;;21161729;28;20228;-68
2022/07/08 16:56:48;;;;;;;0.20;0.00;;;31.10;99.90;;;;;;21160059;28;20188;-69
2022/07/08 17:06:54;;;;;;;0.20;0.00;;;30.70;99.90;;;;;;21159793;28;20243;-69
2022/07/08 17:17:00;;;;;;;0.20;0.00;;;32.30;99.90;;;;;;21162819;28;20242;-71
2022/07/08 17:27:04;;;;;;;0.20;0.00;;;32.70;99.90;;;;;;21224712;28;20223;-70
2022/07/08 17:37:10;;;;;;;0.20;0.00;;;33.20;99.90;;;;;;21226963;28;20187;-70
2022/07/08 17:47:13;;;;;;;0.20;0.00;;;33.30;99.90;;;;;;21303818;28;20214;-70
2022/07/08 17:57:19;;;;;;;0.20;0.00;;;32.90;99.90;;;;;;21309423;28;20261;-70
2022/07/08 18:07:23;;;;;;;0.20;0.00;;;32.40;99.90;;;;;;21327343;28;20214;-70
2022/07/08 18:17:28;;;;;;;0.20;0.00;;;32.40;99.90;;;;;;21310896;27;20249;-69
2022/07/08 18:27:33;;;;;;;0.20;0.00;;;31.80;99.90;;;;;;21196477;28;20224;-71
2022/07/08 18:37:38;;;;;;;0.20;0.00;;;31.50;99.90;;;;;;21226248;28;20203;-68
2022/07/08 18:47:42;;;;;;;0.20;0.00;;;30.10;99.90;;;;;;21254173;28;20245;-69
2022/07/08 18:57:47;;;;;;;0.20;0.10;;;29.50;99.90;;;;;;21252794;28;20292;-70
2022/07/08 19:07:51;;;;;;;0.20;0.00;;;28.30;99.90;;;;;;21234851;28;20212;-69
2022/07/08 19:17:56;;;;;;;0.20;0.00;;;26.80;99.90;;;;;;21264033;27;20241;-69
2022/07/08 19:28:00;;;;;;;0.20;0.00;;;26.50;99.90;;;;;;21312900;27;20226;-69
2022/07/08 19:38:05;;;;;;;0.20;0.00;;;26.40;99.90;;;;;;21275012;27;20195;-69
2022/07/08 19:48:09;;;;;;;0.20;0.00;;;26.60;99.90;;;;;;21250013;28;20215;-69
2022/07/08 19:58:15;;;;;;;0.20;0.00;;;26.60;99.90;;;;;;21249652;28;20206;-69
2022/07/08 20:08:18;;;;;;;0.20;0.00;;;26.30;99.90;;;;;;21246470;28;20311;-70
2022/07/08 20:18:24;;;;;;;0.20;0.08;;;26.20;99.90;;;;;;21231245;28;20228;-69
2022/07/08 20:28:28;;;;;;;0.20;0.00;;;26.00;99.90;;;;;;21248533;28;20195;-68
2022/07/08 20:38:34;;;;;;;0.20;0.08;;;26.00;99.90;;;;;;21294211;27;20207;-68
2022/07/08 20:48:38;;;;;;;0.20;0.10;;;25.80;99.90;;;;;;21333614;27;20246;-68
2022/07/08 20:58:43;;;;;;;0.20;0.00;;;25.50;99.90;;;;;;21312655;27;20210;-68
2022/07/08 21:08:47;;;;;;;0.20;0.10;;;25.30;99.90;;;;;;21252781;27;20192;-69
2022/07/08 21:18:54;;;;;;;0.20;0.10;;;25.40;99.90;;;;;;21250679;27;20248;-68
2022/07/08 21:28:58;;;;;;;0.20;0.10;;;25.80;99.90;;;;;;21344104;27;20217;-68
2022/07/08 21:39:04;;;;;;;0.20;0.00;;;25.80;99.90;;;;;;21329140;27;20232;-70
2022/07/08 21:49:08;;;;;;;0.20;0.00;;;25.80;99.90;;;;;;21353495;27;20220;-69
2022/07/08 21:59:13;;;;;;;0.20;0.10;;;25.70;99.90;;;;;;21341325;27;20218;-69
2022/07/08 22:09:17;;;;;;;0.20;0.10;;;25.50;99.90;;;;;;21329260;27;20198;-70
2022/07/08 22:19:22;;;;;;;0.20;0.00;;;25.50;99.90;;;;;;21344786;27;20292;-69
2022/07/08 22:29:26;;;;;;;0.20;0.00;;;25.50;99.90;;;;;;21325767;27;20191;-71
2022/07/08 22:39:31;;;;;;;0.20;0.00;;;25.40;99.90;;;;;;21328416;27;20202;-70
2022/07/08 22:49:35;;;;;;;0.20;0.10;;;25.40;99.90;;;;;;21345317;27;20210;-69
2022/07/08 22:59:40;;;;;;;0.20;0.10;;;25.40;99.90;;;;;;21327100;27;20214;-69
2022/07/08 23:09:44;;;;;;;0.20;0.00;;;25.50;99.90;;;;;;21345505;27;20224;-70
2022/07/08 23:19:49;;;;;;;0.20;0.10;;;25.40;99.90;;;;;;21343946;27;20227;-69
2022/07/08 23:29:53;;;;;;;0.20;0.00;;;25.20;99.90;;;;;;21342447;27;20255;-70
2022/07/08 23:39:58;;;;;;;0.20;0.10;;;24.80;99.90;;;;;;21266082;27;20219;-69
2022/07/08 23:50:02;;;;;;;0.20;0.00;;;24.80;99.90;;;;;;21239563;28;20218;-70
